Stidham, OK

3:20 AM CDT on September 21, 2014 (GMT -0500)
Arrowhead Estates | Change Station
CLOSE
Current Station
Personal Weather Station
Location: Canadian, OK
Elevation: 682 ft
Nearby Weather Stations

Elev 682 ft 35.17 °N, 95.60 °W | Updated 3 minutes ago

Clear
Clear
71.5 °F
Feels Like 71.5 °F
N
0.0
Wind Variable Wind from South
Gusts 9.0 mph

Today
High -- | Low -- °F
--% Chance of Precip.
Yesterday
High -- | Low -- °F
Precip. -- in
7:10 AM 7:21 PM
Waning Crescent, 8% visible
Pressure 30.04 in
Visibility 10.0 miles
Clouds Clear
Dew Point 69 °F
Humidity 92%
Rainfall 0.00 in
Snow Depth Not available.
UV 0.0 out of 12
Pollen 9.50 out of 12
Air Quality Not available.
Flu Activity Not available.
METAR KOKM 210755Z AUTO 23003KT 10SM CLR 21/20 A3004 RMK AO2 T02050195

More Conditions Fewer Conditions

Pressure 30.04 in
Visibility 10.0 miles
Clouds Clear
Dew Point 69 °F
Humidity 92%
Rainfall 0.00 in
Snow Depth Not available.
UV 0.0 out of 12
Pollen 9.50 out of 12
Air Quality Not available.
Flu Activity Not available.
METAR KOKM 210755Z AUTO 23003KT 10SM CLR 21/20 A3004 RMK AO2 T02050195

More Conditions Fewer Conditions

10-Day Weather Forecast

Almanac

Astronomy

Sep. 21, 2014 Rise Set
Actual Time 7:10 AM CDT 7:21 PM CDT
Civil Twilight 6:44 AM CDT 7:46 PM CDT
Nautical Twilight 6:14 AM CDT 8:16 PM CDT
Astronomical Twilight 5:44 AM CDT 8:46 PM CDT
Moon 4:48 AM CDT 5:54 PM CDT
Length of Visible Light 13h 01m
Length of Day
12h 10m
Tomorrow will be 2m 12s shorter.
Waning Crescent, 8% of the Moon is Illuminated
Today
Waning Crescent
Sep 24
New
Oct 1
First Quarter
Oct 8
Full
Oct 15
Last Quarter

Today's Extremes

State Highs State Lows

Community

WunderPhotos

Upload Photos

1,755,101 photos uploaded!

Nearby

Snow Depth

Station Depth Elevation
No new snow has been reported.

Earthquake Activity

City Distance Mag. Time & Date
Luther, Oklahoma 80 miles 2.7 4:47 PM CDT
2014-09-19
Guthrie, Oklahoma 100 miles 3.6 12:23 PM CDT
2014-09-19
Jones, Oklahoma 89 miles 2.8 1:13 AM CDT
2014-09-19
Perry, Oklahoma 102 miles 3.3 12:08 AM CDT
2014-09-19
Minimum magnitude displayed is 2.5.

Coastal Water Temperatures

Place Temperature
No Stations Reporting

Nearby Weather Stations